createdAt,value
2017-11-03T00:00:24.690Z,101336.62
2017-11-03T00:02:26.011Z,101344.80
2017-11-03T00:04:27.377Z,101343.57
2017-11-03T00:06:29.021Z,101341.97
2017-11-03T00:08:30.480Z,101342.13
2017-11-03T00:10:32.117Z,101342.59
2017-11-03T00:12:33.569Z,101339.88
2017-11-03T00:14:35.038Z,101341.81
2017-11-03T00:16:36.703Z,101346.44
2017-11-03T00:18:38.351Z,101340.08
2017-11-03T00:20:39.908Z,101343.69
2017-11-03T00:22:41.425Z,101336.61
2017-11-03T00:24:44.224Z,101332.37
2017-11-03T00:26:46.676Z,101345.27
2017-11-03T00:28:48.037Z,101337.53
2017-11-03T00:30:49.475Z,101330.33
2017-11-03T00:32:50.954Z,101341.75
2017-11-03T00:34:52.472Z,101321.84
2017-11-03T00:36:54.026Z,101322.39
2017-11-03T00:38:55.573Z,101330.30
2017-11-03T00:40:56.833Z,101326.39
2017-11-03T00:42:58.476Z,101338.73
2017-11-03T00:44:59.940Z,101330.98
2017-11-03T00:47:01.482Z,101323.55
2017-11-03T00:49:02.797Z,101328.61
2017-11-03T00:51:04.356Z,101328.35
2017-11-03T00:53:06.950Z,101334.16
2017-11-03T00:55:08.364Z,101324.87
2017-11-03T00:57:09.842Z,101336.30
2017-11-03T00:59:11.382Z,101338.23
2017-11-03T01:01:13.756Z,101340.53
2017-11-03T01:03:16.032Z,101333.48
2017-11-03T01:05:17.574Z,101336.51
2017-11-03T01:07:19.236Z,101334.48
2017-11-03T01:09:20.799Z,101335.78
2017-11-03T01:11:22.352Z,101341.56
2017-11-03T01:13:24.080Z,101333.48
2017-11-03T01:15:27.469Z,101346.83
2017-11-03T01:17:28.799Z,101335.06
2017-11-03T01:19:30.161Z,101342.27
2017-11-03T01:21:31.623Z,101350.48
2017-11-03T01:23:33.174Z,101335.76
2017-11-03T01:25:34.716Z,101347.27
2017-11-03T01:27:38.315Z,101349.48
2017-11-03T01:29:39.650Z,101342.21
2017-11-03T01:31:40.991Z,101337.88
2017-11-03T01:33:42.674Z,101342.63
2017-11-03T01:35:44.209Z,101340.44
2017-11-03T01:37:45.671Z,101340.48
2017-11-03T01:39:47.099Z,101354.68
2017-11-03T01:41:48.451Z,101348.36
2017-11-03T01:43:49.797Z,101347.47
2017-11-03T01:45:51.101Z,101346.75
2017-11-03T01:47:52.407Z,101349.36
2017-11-03T01:49:53.670Z,101349.36
2017-11-03T01:51:54.994Z,101333.91
2017-11-03T01:53:56.231Z,101331.72
2017-11-03T01:55:57.791Z,101335.20
2017-11-03T01:57:59.317Z,101331.56
2017-11-03T02:00:00.770Z,101333.72
2017-11-03T02:02:02.081Z,101339.42
2017-11-03T02:04:03.562Z,101338.50
2017-11-03T02:06:05.016Z,101334.28
2017-11-03T02:08:06.445Z,101324.66
2017-11-03T02:10:08.116Z,101337.31
2017-11-03T02:12:09.387Z,101344.41
2017-11-03T02:14:11.015Z,101338.89
2017-11-03T02:16:13.280Z,101333.41
2017-11-03T02:18:14.746Z,101324.56
2017-11-03T02:20:16.010Z,101324.67
2017-11-03T02:22:17.522Z,101338.59
2017-11-03T02:24:18.851Z,101338.52
2017-11-03T02:26:20.316Z,101326.02
2017-11-03T02:28:21.791Z,101328.19
2017-11-03T02:30:23.220Z,101329.41
2017-11-03T02:32:24.657Z,101338.46
2017-11-03T02:34:26.123Z,101329.14
2017-11-03T02:36:27.757Z,101334.11
2017-11-03T02:38:29.039Z,101326.26
2017-11-03T02:40:30.554Z,101341.09
2017-11-03T02:42:31.916Z,101336.48
2017-11-03T02:44:33.916Z,101329.78
2017-11-03T02:46:35.921Z,101336.64
2017-11-03T02:48:37.352Z,101335.30
2017-11-03T02:50:39.045Z,101327.98
2017-11-03T02:52:40.397Z,101339.44
2017-11-03T02:54:42.032Z,101337.60
2017-11-03T02:56:43.449Z,101340.63
2017-11-03T02:58:44.832Z,101339.02
2017-11-03T03:00:48.128Z,101342.28
2017-11-03T03:02:49.753Z,101339.44
2017-11-03T03:04:51.212Z,101341.53
2017-11-03T03:06:52.661Z,101333.59
2017-11-03T03:08:54.514Z,101338.73
2017-11-03T03:10:55.865Z,101338.16
2017-11-03T03:12:57.202Z,101336.80
2017-11-03T03:14:58.521Z,101329.88
2017-11-03T03:16:59.893Z,101340.58
2017-11-03T03:19:01.345Z,101343.30
2017-11-03T03:21:02.588Z,101340.73
2017-11-03T03:23:04.971Z,101331.53
2017-11-03T03:25:06.527Z,101333.84
2017-11-03T03:27:08.031Z,101337.89
2017-11-03T03:29:09.512Z,101338.94
2017-11-03T03:31:10.860Z,101333.50
2017-11-03T03:33:12.296Z,101335.95
2017-11-03T03:35:13.751Z,101338.26
2017-11-03T03:37:15.141Z,101340.48
2017-11-03T03:39:16.642Z,101343.31
2017-11-03T03:41:18.101Z,101343.89
2017-11-03T03:43:20.058Z,101345.89
2017-11-03T03:45:21.510Z,101341.36
2017-11-03T03:47:22.836Z,101334.00
2017-11-03T03:49:24.101Z,101339.34
2017-11-03T03:51:26.049Z,101339.52
2017-11-03T03:53:29.955Z,101332.85
2017-11-03T03:55:32.230Z,101347.03
2017-11-03T03:57:33.995Z,101342.24
2017-11-03T03:59:35.545Z,101345.92
2017-11-03T04:01:37.392Z,101337.19
2017-11-03T04:03:39.110Z,101331.28
2017-11-03T04:05:40.898Z,101344.01
2017-11-03T04:07:42.348Z,101349.22
2017-11-03T04:09:44.145Z,101332.73
2017-11-03T04:11:45.769Z,101337.64
2017-11-03T04:13:47.422Z,101349.45
2017-11-03T04:15:48.790Z,101354.20
2017-11-03T04:17:50.412Z,101334.62
2017-11-03T04:19:52.055Z,101338.14
2017-11-03T04:21:53.717Z,101342.20
2017-11-03T04:23:57.228Z,101346.11
2017-11-03T04:25:58.871Z,101348.65
2017-11-03T04:28:00.419Z,101348.95
2017-11-03T04:30:01.994Z,101351.17
2017-11-03T04:32:03.321Z,101344.84
2017-11-03T04:34:04.952Z,101340.02
2017-11-03T04:36:06.653Z,101351.86
2017-11-03T04:38:08.266Z,101342.78
2017-11-03T04:40:09.820Z,101335.98
2017-11-03T04:42:11.078Z,101330.04
2017-11-03T04:44:12.934Z,101336.91
2017-11-03T04:46:14.708Z,101341.85
2017-11-03T04:48:16.672Z,101342.63
2017-11-03T04:50:18.192Z,101338.41
2017-11-03T04:52:19.751Z,101348.94
2017-11-03T04:54:21.401Z,101334.10
2017-11-03T04:56:23.183Z,101335.41
2017-11-03T04:58:24.510Z,101347.75
2017-11-03T05:00:26.387Z,101339.58
2017-11-03T05:02:28.006Z,101341.27
2017-11-03T05:04:29.654Z,101329.53
2017-11-03T05:06:31.270Z,101330.53
2017-11-03T05:08:33.060Z,101333.13
2017-11-03T05:10:34.751Z,101330.57
2017-11-03T05:12:36.264Z,101330.11
2017-11-03T05:14:38.042Z,101338.97
2017-11-03T05:16:40.192Z,101330.84
2017-11-03T05:18:41.961Z,101324.17
2017-11-03T05:20:43.711Z,101331.72
2017-11-03T05:22:45.340Z,101327.23
2017-11-03T05:24:47.139Z,101330.98
2017-11-03T05:26:48.771Z,101328.42
2017-11-03T05:28:52.421Z,101320.17
2017-11-03T05:30:54.120Z,101327.23
2017-11-03T05:32:55.889Z,101334.52
2017-11-03T05:34:57.742Z,101331.52
2017-11-03T05:36:59.284Z,101325.42
2017-11-03T05:39:01.050Z,101328.53
2017-11-03T05:41:03.017Z,101318.88
2017-11-03T05:43:05.793Z,101330.84
2017-11-03T05:45:07.443Z,101332.58
2017-11-03T05:47:09.320Z,101328.89
2017-11-03T05:49:11.037Z,101341.81
2017-11-03T05:51:13.040Z,101342.01
2017-11-03T05:53:14.980Z,101337.52
2017-11-03T05:55:16.511Z,101336.91
2017-11-03T05:57:18.168Z,101332.05
2017-11-03T05:59:20.127Z,101337.03
2017-11-03T06:01:22.108Z,101340.05
2017-11-03T06:03:23.884Z,101328.14
2017-11-03T06:05:25.818Z,101342.63
2017-11-03T06:07:27.673Z,101336.72
2017-11-03T06:09:29.356Z,101326.30
2017-11-03T06:11:31.298Z,101330.70
2017-11-03T06:13:33.361Z,101339.52
2017-11-03T06:15:35.150Z,101330.47
2017-11-03T06:17:37.101Z,101331.66
2017-11-03T06:19:38.931Z,101331.81
2017-11-03T06:21:40.680Z,101336.11
2017-11-03T06:23:42.564Z,101337.10
2017-11-03T06:25:44.434Z,101335.07
2017-11-03T06:27:46.344Z,101338.71
2017-11-03T06:29:48.094Z,101337.72
2017-11-03T06:31:49.760Z,101341.63
2017-11-03T06:33:51.317Z,101326.59
2017-11-03T06:35:52.840Z,101332.03
2017-11-03T06:37:54.514Z,101341.19
2017-11-03T06:39:56.270Z,101336.13
2017-11-03T06:41:57.890Z,101347.10
2017-11-03T06:43:59.763Z,101351.32
2017-11-03T06:46:01.415Z,101359.32
2017-11-03T06:48:03.068Z,101343.02
2017-11-03T06:50:05.359Z,101355.09
2017-11-03T06:52:06.900Z,101348.72
2017-11-03T06:54:08.651Z,101357.53
2017-11-03T06:56:10.413Z,101357.95
2017-11-03T06:58:12.130Z,101350.20
2017-11-03T07:00:13.932Z,101364.21
2017-11-03T07:02:15.770Z,101364.45
2017-11-03T07:04:17.539Z,101362.91
2017-11-03T07:06:19.112Z,101354.63
2017-11-03T07:08:21.145Z,101363.09
2017-11-03T07:10:22.924Z,101368.48
2017-11-03T07:12:24.673Z,101362.80
2017-11-03T07:14:26.413Z,101373.84
2017-11-03T07:16:28.233Z,101377.86
2017-11-03T07:18:29.923Z,101377.90
2017-11-03T07:20:31.693Z,101364.82
2017-11-03T07:22:33.483Z,101381.45
2017-11-03T07:24:35.320Z,101387.66
2017-11-03T07:26:37.066Z,101386.84
2017-11-03T07:28:38.976Z,101377.06
2017-11-03T07:30:40.680Z,101390.41
2017-11-03T07:32:42.429Z,101385.23
2017-11-03T07:34:44.088Z,101388.37
2017-11-03T07:36:46.080Z,101375.25
2017-11-03T07:38:47.985Z,101391.05
2017-11-03T07:40:49.311Z,101382.42
2017-11-03T07:42:51.193Z,101379.02
2017-11-03T07:44:52.953Z,101368.58
2017-11-03T07:46:54.712Z,101372.48
2017-11-03T07:48:57.273Z,101366.55
2017-11-03T07:50:58.741Z,101373.27
2017-11-03T07:53:00.912Z,101377.13
2017-11-03T07:55:02.878Z,101379.35
2017-11-03T07:57:04.713Z,101382.37
2017-11-03T07:59:06.391Z,101386.34
2017-11-03T08:01:08.110Z,101391.59
2017-11-03T08:03:09.975Z,101388.52
2017-11-03T08:05:11.736Z,101389.09
2017-11-03T08:07:13.510Z,101383.95
2017-11-03T08:09:15.369Z,101378.69
2017-11-03T08:11:17.094Z,101392.16
2017-11-03T08:13:18.953Z,101397.05
2017-11-03T08:15:20.726Z,101389.66
2017-11-03T08:17:22.228Z,101382.37
2017-11-03T08:19:23.830Z,101388.53
2017-11-03T08:21:25.653Z,101378.47
2017-11-03T08:23:27.350Z,101385.52
2017-11-03T08:25:29.117Z,101378.05
2017-11-03T08:27:30.893Z,101382.48
2017-11-03T08:29:32.711Z,101377.73
2017-11-03T08:31:34.561Z,101381.60
2017-11-03T08:33:36.325Z,101369.41
2017-11-03T08:35:38.273Z,101366.48
2017-11-03T08:37:40.121Z,101361.31
2017-11-03T08:39:41.778Z,101374.89
2017-11-03T08:41:43.649Z,101368.42
2017-11-03T08:43:45.188Z,101367.90
2017-11-03T08:45:46.949Z,101370.59
2017-11-03T08:47:48.612Z,101366.03
2017-11-03T08:49:50.469Z,101367.79
2017-11-03T08:51:52.116Z,101355.02
2017-11-03T08:53:53.869Z,101361.59
2017-11-03T08:55:55.679Z,101366.45
2017-11-03T08:57:57.389Z,101362.90
2017-11-03T08:59:59.250Z,101331.86
2017-11-03T09:02:01.186Z,101367.17
2017-11-03T09:04:02.860Z,101357.50
2017-11-03T09:06:04.506Z,101361.22
2017-11-03T09:08:06.267Z,101375.49
2017-11-03T09:10:07.900Z,101368.95
2017-11-03T09:12:09.669Z,101368.93
2017-11-03T09:14:11.320Z,101367.59
2017-11-03T09:16:13.082Z,101351.74
2017-11-03T09:18:14.930Z,101374.95
2017-11-03T09:20:16.689Z,101365.65
2017-11-03T09:22:18.440Z,101365.04
2017-11-03T09:24:20.226Z,101369.53
2017-11-03T09:26:22.052Z,101369.52
2017-11-03T09:28:23.794Z,101369.83
2017-11-03T09:30:25.543Z,101368.16
2017-11-03T09:32:27.430Z,101361.19
2017-11-03T09:34:29.175Z,101368.25
2017-11-03T09:36:30.938Z,101372.16
2017-11-03T09:38:32.688Z,101373.53
2017-11-03T09:40:34.442Z,101371.77
2017-11-03T09:42:36.091Z,101363.94
2017-11-03T09:44:37.971Z,101365.65
2017-11-03T09:46:39.616Z,101360.60
2017-11-03T09:48:41.362Z,101365.52
2017-11-03T09:50:43.011Z,101367.84
2017-11-03T09:52:44.785Z,101363.94
2017-11-03T09:54:46.725Z,101364.56
2017-11-03T09:56:48.577Z,101366.86
2017-11-03T09:58:50.242Z,101366.92
2017-11-03T10:00:51.906Z,101360.25
2017-11-03T10:02:53.633Z,101367.64
2017-11-03T10:04:55.404Z,101370.25
2017-11-03T10:06:57.058Z,101360.77
2017-11-03T10:09:02.102Z,101359.53
2017-11-03T10:11:03.861Z,101365.86
2017-11-03T10:13:06.899Z,101300.52
2017-11-03T10:15:08.795Z,101351.55
2017-11-03T10:17:10.562Z,101366.92
2017-11-03T10:19:12.504Z,101361.08
2017-11-03T10:21:14.069Z,101357.09
2017-11-03T10:23:15.820Z,101357.17
2017-11-03T10:25:17.557Z,101346.42
2017-11-03T10:27:19.122Z,101345.89
2017-11-03T10:29:20.890Z,101351.98
2017-11-03T10:31:22.643Z,101352.13
2017-11-03T10:33:24.393Z,101352.67
2017-11-03T10:35:25.939Z,101341.44
2017-11-03T10:37:27.681Z,101344.69
2017-11-03T10:39:29.550Z,101352.52
2017-11-03T10:41:31.722Z,101350.17
2017-11-03T10:43:33.465Z,101341.81
2017-11-03T10:45:35.233Z,101335.91
2017-11-03T10:47:36.776Z,101348.28
2017-11-03T10:49:38.432Z,101334.82
2017-11-03T10:51:40.055Z,101342.75
2017-11-03T10:53:41.851Z,101334.38
2017-11-03T10:55:43.414Z,101339.05
2017-11-03T10:57:45.360Z,101336.25
2017-11-03T10:59:47.011Z,101333.90
2017-11-03T11:01:49.072Z,101330.63
2017-11-03T11:03:50.847Z,101322.88
2017-11-03T11:05:52.780Z,101327.05
2017-11-03T11:07:54.653Z,101315.47
2017-11-03T11:09:56.413Z,101330.22
2017-11-03T11:11:58.162Z,101324.20
2017-11-03T11:13:59.755Z,101326.83
2017-11-03T11:16:01.362Z,101322.63
2017-11-03T11:18:03.020Z,101319.72
2017-11-03T11:20:04.777Z,101330.60
2017-11-03T11:22:06.627Z,101323.12
2017-11-03T11:24:08.368Z,101307.92
2017-11-03T11:26:10.376Z,101307.83
2017-11-03T11:28:12.525Z,101313.03
2017-11-03T11:30:14.366Z,101313.36
2017-11-03T11:32:16.236Z,101312.02
2017-11-03T11:34:17.865Z,101303.30
2017-11-03T11:36:19.528Z,101301.83
2017-11-03T11:38:21.509Z,101298.67
2017-11-03T11:40:23.801Z,101310.72
2017-11-03T11:42:25.428Z,101302.89
2017-11-03T11:44:27.175Z,101303.13
2017-11-03T11:46:29.144Z,101289.66
2017-11-03T11:48:30.986Z,101298.67
2017-11-03T11:50:33.376Z,101295.52
2017-11-03T11:52:35.228Z,101291.61
2017-11-03T11:54:37.238Z,101298.61
2017-11-03T11:56:39.272Z,101303.71
2017-11-03T11:58:41.162Z,101288.00
2017-11-03T12:00:42.872Z,101281.77
2017-11-03T12:02:44.781Z,101286.95
2017-11-03T12:04:46.663Z,101287.76
2017-11-03T12:06:49.040Z,101277.51
2017-11-03T12:08:50.924Z,101275.83
2017-11-03T12:10:52.838Z,101222.38
2017-11-03T12:12:54.802Z,101279.09
2017-11-03T12:14:56.452Z,101268.00
2017-11-03T12:16:58.074Z,101214.23
2017-11-03T12:19:00.881Z,101272.86
2017-11-03T12:21:03.971Z,101259.05
2017-11-03T12:23:05.742Z,101264.36
2017-11-03T12:25:07.579Z,101265.25
2017-11-03T12:27:09.447Z,101272.33
2017-11-03T12:29:11.303Z,101252.35
2017-11-03T12:31:13.079Z,101260.86
2017-11-03T12:33:14.821Z,101264.36
2017-11-03T12:35:16.679Z,101259.76
2017-11-03T12:37:18.540Z,101245.69
2017-11-03T12:39:20.198Z,101260.13
2017-11-03T12:41:21.946Z,101258.28
2017-11-03T12:43:23.815Z,101264.44
2017-11-03T12:45:25.341Z,101251.66
2017-11-03T12:47:27.566Z,101244.25
2017-11-03T12:49:29.403Z,101251.66
2017-11-03T12:51:31.641Z,101250.06
2017-11-03T12:53:33.827Z,101237.92
2017-11-03T12:55:35.754Z,101243.39
2017-11-03T12:57:37.534Z,101228.64
2017-11-03T12:59:39.371Z,101233.95
2017-11-03T13:01:41.221Z,101228.52
2017-11-03T13:03:43.110Z,101222.91
2017-11-03T13:05:44.851Z,101233.06
2017-11-03T13:07:46.645Z,101231.25
2017-11-03T13:09:48.359Z,101222.58
2017-11-03T13:11:50.241Z,101216.33
2017-11-03T13:13:52.184Z,101218.85
2017-11-03T13:15:53.929Z,101212.66
2017-11-03T13:17:55.666Z,101216.45
2017-11-03T13:19:59.051Z,101203.21
2017-11-03T13:22:01.394Z,101215.06
2017-11-03T13:24:03.488Z,101206.42
2017-11-03T13:26:05.372Z,101211.86
2017-11-03T13:28:07.059Z,101209.97
2017-11-03T13:30:08.991Z,101207.36
2017-11-03T13:32:10.761Z,101193.33
2017-11-03T13:34:12.721Z,101217.06
2017-11-03T13:36:14.890Z,101204.75
2017-11-03T13:38:16.821Z,101206.02
2017-11-03T13:40:18.486Z,101196.76
2017-11-03T13:42:20.465Z,101200.38
2017-11-03T13:44:22.230Z,101199.15
2017-11-03T13:46:24.257Z,101201.39
2017-11-03T13:48:26.021Z,101192.55
2017-11-03T13:50:27.892Z,101191.66
2017-11-03T13:52:29.736Z,101190.59
2017-11-03T13:54:31.390Z,101190.47
2017-11-03T13:56:33.251Z,101194.05
2017-11-03T13:58:35.036Z,101191.06
2017-11-03T14:00:36.925Z,101193.67
2017-11-03T14:02:38.716Z,101182.01
2017-11-03T14:04:40.374Z,101192.20
2017-11-03T14:06:42.229Z,101185.67
2017-11-03T14:08:43.966Z,101194.94
2017-11-03T14:10:45.855Z,101190.23
2017-11-03T14:12:47.593Z,101177.08
2017-11-03T14:14:49.362Z,101185.92
2017-11-03T14:16:51.164Z,101175.39
2017-11-03T14:18:52.762Z,101176.82
2017-11-03T14:20:54.434Z,101168.23
2017-11-03T14:22:56.340Z,101168.09
2017-11-03T14:24:58.446Z,101171.72
2017-11-03T14:27:00.190Z,101171.30
2017-11-03T14:29:01.771Z,101168.34
2017-11-03T14:31:03.800Z,101165.23
2017-11-03T14:33:08.771Z,101155.05
2017-11-03T14:35:10.193Z,101165.02
2017-11-03T14:37:11.818Z,101164.19
2017-11-03T14:39:13.580Z,101155.13
2017-11-03T14:41:15.138Z,101163.13
2017-11-03T14:43:16.785Z,101163.94
2017-11-03T14:45:18.564Z,101148.35
2017-11-03T14:47:20.431Z,101160.64
2017-11-03T14:49:22.358Z,101159.26
2017-11-03T14:51:24.085Z,101152.73
2017-11-03T14:53:26.089Z,101165.92
2017-11-03T14:55:27.780Z,101156.82
2017-11-03T14:57:29.494Z,101158.50
2017-11-03T14:59:31.230Z,101156.53
2017-11-03T15:01:32.999Z,101153.88
2017-11-03T15:03:34.765Z,101149.13
2017-11-03T15:05:36.500Z,101151.14
2017-11-03T15:07:38.159Z,101152.03
2017-11-03T15:09:39.817Z,101141.33
2017-11-03T15:11:41.481Z,101142.97
2017-11-03T15:13:43.340Z,101146.34
2017-11-03T15:15:45.093Z,101149.37
2017-11-03T15:17:46.796Z,101148.23
2017-11-03T15:19:48.604Z,101150.33
2017-11-03T15:21:50.353Z,101142.96
2017-11-03T15:23:52.108Z,101145.20
2017-11-03T15:25:54.009Z,101140.31
2017-11-03T15:27:55.903Z,101147.48
2017-11-03T15:29:57.496Z,101138.00
2017-11-03T15:31:59.327Z,101145.53
2017-11-03T15:34:00.971Z,101143.02
2017-11-03T15:36:02.727Z,101138.71
2017-11-03T15:38:04.390Z,101140.56
2017-11-03T15:40:06.454Z,101136.47
2017-11-03T15:42:08.246Z,101131.79
2017-11-03T15:44:10.065Z,101129.81
2017-11-03T15:46:11.718Z,101125.75
2017-11-03T15:48:13.272Z,101116.47
2017-11-03T15:50:15.107Z,101126.45
2017-11-03T15:52:16.904Z,101127.63
2017-11-03T15:54:19.866Z,101119.36
2017-11-03T15:56:21.538Z,101128.51
2017-11-03T15:58:23.264Z,101126.39
2017-11-03T16:00:25.045Z,101121.64
2017-11-03T16:02:26.666Z,101118.31
2017-11-03T16:04:28.459Z,101124.98
2017-11-03T16:06:30.288Z,101123.25
2017-11-03T16:08:32.041Z,101118.51
2017-11-03T16:10:33.587Z,101118.12
2017-11-03T16:12:35.381Z,101126.92
2017-11-03T16:14:37.210Z,101132.23
2017-11-03T16:16:38.976Z,101130.98
2017-11-03T16:18:40.720Z,101132.07
2017-11-03T16:20:42.368Z,101124.38
2017-11-03T16:22:44.332Z,101122.36
2017-11-03T16:24:46.272Z,101131.32
2017-11-03T16:26:48.161Z,101124.38
2017-11-03T16:28:49.902Z,101135.16
2017-11-03T16:30:51.554Z,101113.98
2017-11-03T16:32:53.423Z,101131.13
2017-11-03T16:34:55.089Z,101112.05
2017-11-03T16:36:56.712Z,101120.64
2017-11-03T16:38:58.276Z,101129.73
2017-11-03T16:41:00.035Z,101125.16
2017-11-03T16:43:01.606Z,101113.06
2017-11-03T16:45:03.485Z,101110.42
2017-11-03T16:47:05.197Z,101124.23
2017-11-03T16:49:07.126Z,101120.16
2017-11-03T16:51:09.231Z,101118.98
2017-11-03T16:53:10.860Z,101125.63
2017-11-03T16:55:12.652Z,101110.98
2017-11-03T16:57:14.477Z,101130.31
2017-11-03T16:59:16.143Z,101128.13
2017-11-03T17:01:17.690Z,101129.77
2017-11-03T17:03:19.437Z,101128.59
2017-11-03T17:05:21.311Z,101132.63
2017-11-03T17:07:22.960Z,101113.05
2017-11-03T17:09:24.587Z,101118.03
2017-11-03T17:11:26.473Z,101128.89
2017-11-03T17:13:28.109Z,101115.88
2017-11-03T17:15:29.911Z,101121.98
2017-11-03T17:17:31.630Z,101122.39
2017-11-03T17:19:33.390Z,101122.53
2017-11-03T17:21:35.030Z,101115.96
2017-11-03T17:23:36.685Z,101123.00
2017-11-03T17:25:38.467Z,101127.00
2017-11-03T17:27:40.207Z,101124.60
2017-11-03T17:29:41.855Z,101120.34
2017-11-03T17:31:43.480Z,101118.33
2017-11-03T17:33:45.378Z,101116.43
2017-11-03T17:35:46.920Z,101110.62
2017-11-03T17:37:48.544Z,101123.25
2017-11-03T17:39:50.324Z,101108.25
2017-11-03T17:41:51.977Z,101122.19
2017-11-03T17:43:53.634Z,101111.45
2017-11-03T17:45:55.524Z,101104.85
2017-11-03T17:47:57.262Z,101104.64
2017-11-03T17:49:58.878Z,101108.97
2017-11-03T17:52:00.448Z,101112.09
2017-11-03T17:54:02.195Z,101108.25
2017-11-03T17:56:03.752Z,101107.13
2017-11-03T17:58:05.509Z,101105.35
2017-11-03T18:00:07.159Z,101097.98
2017-11-03T18:02:08.726Z,101103.33
2017-11-03T18:04:10.359Z,101089.45
2017-11-03T18:06:11.799Z,101096.51
2017-11-03T18:08:13.468Z,101102.27
2017-11-03T18:10:15.234Z,101100.08
2017-11-03T18:12:16.885Z,101105.39
2017-11-03T18:14:18.426Z,101107.59
2017-11-03T18:16:20.077Z,101106.02
2017-11-03T18:18:21.719Z,101105.47
2017-11-03T18:20:23.263Z,101110.98
2017-11-03T18:22:25.001Z,101097.94
2017-11-03T18:24:27.484Z,101106.77
2017-11-03T18:26:29.046Z,101105.13
2017-11-03T18:28:31.014Z,101095.16
2017-11-03T18:30:32.670Z,101098.35
2017-11-03T18:32:34.312Z,101090.64
2017-11-03T18:34:35.984Z,101098.42
2017-11-03T18:36:37.630Z,101096.92
2017-11-03T18:38:39.272Z,101093.12
2017-11-03T18:40:41.034Z,101086.68
2017-11-03T18:42:42.689Z,101080.75
2017-11-03T18:44:44.342Z,101094.38
2017-11-03T18:46:45.999Z,101086.30
2017-11-03T18:48:47.559Z,101082.34
2017-11-03T18:50:49.093Z,101080.70
2017-11-03T18:52:50.624Z,101087.73
2017-11-03T18:54:52.292Z,101089.16
2017-11-03T18:56:53.948Z,101089.59
2017-11-03T18:58:55.611Z,101091.02
2017-11-03T19:00:57.350Z,101089.89
2017-11-03T19:02:59.007Z,101087.16
2017-11-03T19:05:00.653Z,101094.44
2017-11-03T19:07:02.425Z,101091.53
2017-11-03T19:09:04.279Z,101087.84
2017-11-03T19:11:05.928Z,101097.05
2017-11-03T19:13:08.300Z,101078.83
2017-11-03T19:15:10.051Z,101082.23
2017-11-03T19:17:13.861Z,101083.63
2017-11-03T19:19:15.615Z,101081.73
2017-11-03T19:21:17.175Z,101073.81
2017-11-03T19:23:18.909Z,101075.80
2017-11-03T19:25:21.397Z,101079.42
2017-11-03T19:27:23.248Z,101077.31
2017-11-03T19:29:25.383Z,101078.23
2017-11-03T19:31:26.866Z,101078.61
2017-11-03T19:33:28.517Z,101074.57
2017-11-03T19:35:30.177Z,101085.02
2017-11-03T19:37:31.736Z,101082.66
2017-11-03T19:39:33.384Z,101085.77
2017-11-03T19:41:35.029Z,101088.03
2017-11-03T19:43:36.581Z,101077.72
2017-11-03T19:45:38.236Z,101084.41
2017-11-03T19:47:39.978Z,101078.48
2017-11-03T19:49:41.524Z,101075.58
2017-11-03T19:51:43.187Z,101079.69
2017-11-03T19:53:44.852Z,101063.45
2017-11-03T19:55:46.397Z,101074.17
2017-11-03T19:57:48.142Z,101070.55
2017-11-03T19:59:49.580Z,101068.41
2017-11-03T20:01:51.242Z,101060.10
2017-11-03T20:03:52.917Z,101069.64
2017-11-03T20:05:54.656Z,101061.98
2017-11-03T20:07:56.308Z,101069.30
2017-11-03T20:09:57.847Z,101055.53
2017-11-03T20:11:59.421Z,101069.33
2017-11-03T20:14:01.059Z,101070.75
2017-11-03T20:16:02.441Z,101068.25
2017-11-03T20:18:04.065Z,101067.95
2017-11-03T20:20:05.712Z,101074.73
2017-11-03T20:22:07.260Z,101069.22
2017-11-03T20:24:09.332Z,101070.22
2017-11-03T20:26:10.976Z,101059.45
2017-11-03T20:28:12.629Z,101026.92
2017-11-03T20:30:14.183Z,101073.16
2017-11-03T20:32:15.741Z,101064.66
2017-11-03T20:34:17.379Z,101059.89
2017-11-03T20:36:18.939Z,101068.85
2017-11-03T20:38:20.589Z,101064.22
2017-11-03T20:40:22.339Z,101067.83
2017-11-03T20:42:23.801Z,101064.34
2017-11-03T20:44:25.454Z,101052.76
2017-11-03T20:46:27.099Z,101060.25
2017-11-03T20:48:28.775Z,101062.48
2017-11-03T20:50:30.391Z,101058.97
2017-11-03T20:52:31.958Z,101057.51
2017-11-03T20:54:33.509Z,101050.13
2017-11-03T20:56:35.154Z,101059.34
2017-11-03T20:58:36.799Z,101052.86
2017-11-03T21:00:38.365Z,101040.79
2017-11-03T21:02:39.932Z,101045.72
2017-11-03T21:04:41.565Z,101043.81
2017-11-03T21:06:43.626Z,101049.14
2017-11-03T21:08:45.282Z,101049.73
2017-11-03T21:10:46.935Z,101041.03
2017-11-03T21:12:48.596Z,101038.13
2017-11-03T21:14:51.469Z,101033.84
2017-11-03T21:16:53.131Z,101019.38
2017-11-03T21:18:54.778Z,101022.87
2017-11-03T21:20:56.433Z,101023.66
2017-11-03T21:22:58.087Z,101019.03
2017-11-03T21:24:59.540Z,101018.06
2017-11-03T21:27:01.085Z,101006.82
2017-11-03T21:29:02.831Z,101013.49
2017-11-03T21:31:04.486Z,101017.48
2017-11-03T21:33:06.151Z,101018.87
2017-11-03T21:35:07.584Z,101006.84
2017-11-03T21:37:09.463Z,101018.70
2017-11-03T21:39:11.005Z,101012.17
2017-11-03T21:41:12.646Z,101010.52
2017-11-03T21:43:14.076Z,101010.14
2017-11-03T21:45:16.939Z,101020.78
2017-11-03T21:47:18.499Z,101018.64
2017-11-03T21:49:20.071Z,101007.31
2017-11-03T21:51:21.517Z,101011.27
2017-11-03T21:53:22.982Z,101018.08
2017-11-03T21:55:24.531Z,101006.71
2017-11-03T21:57:27.939Z,101002.05
2017-11-03T21:59:29.569Z,100996.41
2017-11-03T22:01:31.221Z,101007.31
2017-11-03T22:03:33.192Z,101019.16
2017-11-03T22:05:34.743Z,100997.88
2017-11-03T22:07:36.284Z,101008.75
2017-11-03T22:09:37.720Z,101013.27
2017-11-03T22:11:39.307Z,101003.73
2017-11-03T22:13:40.982Z,101003.88
2017-11-03T22:15:42.691Z,100996.73
2017-11-03T22:17:44.051Z,100998.52
2017-11-03T22:19:45.497Z,100994.92
2017-11-03T22:21:47.187Z,101003.91
2017-11-03T22:23:48.799Z,101004.45
2017-11-03T22:25:50.444Z,101012.67
2017-11-03T22:27:51.891Z,101003.86
2017-11-03T22:29:53.236Z,101006.72
2017-11-03T22:31:54.899Z,100995.40
2017-11-03T22:33:56.553Z,101000.13
2017-11-03T22:35:58.301Z,101005.00
2017-11-03T22:37:59.739Z,101001.25
2017-11-03T22:40:03.258Z,100993.84
2017-11-03T22:42:05.623Z,101009.07
2017-11-03T22:44:07.041Z,101005.88
2017-11-03T22:46:08.415Z,101000.91
2017-11-03T22:48:09.982Z,101004.44
2017-11-03T22:50:11.516Z,100995.34
2017-11-03T22:52:13.889Z,100997.24
2017-11-03T22:54:15.536Z,101000.77
2017-11-03T22:56:17.085Z,100999.63
2017-11-03T22:58:18.549Z,100988.27
2017-11-03T23:00:20.184Z,100988.01
2017-11-03T23:02:21.616Z,100989.23
2017-11-03T23:04:23.098Z,100984.31
2017-11-03T23:06:26.374Z,100978.89
2017-11-03T23:08:28.043Z,100978.97